Terminal Aerodrome Forecast
Issued by NWS

Home | Current Version | Previous Version | Text Only | Print | Product List | Glossary On
Versions: 1 2 3 4 5 6 7 8 9 10 11 12 13 14 15 16 17 18 19 20 21
000
FTUS43 KDLH 211100
TAFBRD
TAF
KBRD 211120Z 2112/2212 00000KT 4SM BR SKC
      TEMPO 2112/2113 P6SM NSW
     FM211300 VRB02KT P6SM SKC
     FM211500 14008G15KT P6SM SCT025
     FM211800 14012G20KT P6SM SKC
     FM220000 15010KT P6SM SKC=

USA.gov is the U.S. government's official web portal to all federal, state and local government web resources and services.